Time;durP1;ratioP1;P1;durP2;ratioP2;P2;SDS_P1;SDS_P2;PMS_P1;PMS_P2;Temp;Humidity;BMP_temperature;BMP_pressure;BME280_temperature;BME280_humidity;BME280_pressure;Samples;Min_cycle;Max_cycle;Signal;HPM_P1;HPM_P2
2021/12/15 00:03:25;;;;;;;55.30;50.30;;;;;;;10.29;96.14;102514.31;10384132;28;20659;-83
2021/12/15 00:08:27;;;;;;;56.38;51.50;;;;;;;11.19;95.81;102671.63;10389180;28;20254;-83
2021/12/15 00:13:31;;;;;;;55.33;50.60;;;;;;;10.65;95.57;102600.03;10387084;28;20209;-84
2021/12/15 00:18:32;;;;;;;56.50;51.40;;;;;;;10.85;96.02;102627.66;10387457;28;20204;-84
2021/12/15 00:23:34;;;;;;;55.90;51.03;;;;;;;11.08;96.42;102664.97;10387408;28;20212;-83
2021/12/15 00:28:37;;;;;;;54.28;49.35;;;;;;;10.88;95.88;102622.19;10389352;28;20227;-84
2021/12/15 00:33:40;;;;;;;53.87;49.27;;;;;;;11.07;96.59;102665.03;10387142;28;20301;-83
2021/12/15 00:38:43;;;;;;;54.10;49.40;;;;;;;11.06;95.96;102666.84;10387209;28;20220;-82
2021/12/15 00:43:46;;;;;;;55.20;50.43;;;;;;;10.91;95.90;102638.97;10383978;28;20259;-83
2021/12/15 00:48:49;;;;;;;54.92;50.33;;;;;;;11.06;96.27;102665.97;10387070;28;20970;-82
2021/12/15 00:53:51;;;;;;;56.10;51.10;;;;;;;11.09;96.76;102671.19;10386599;28;20223;-83
2021/12/15 00:58:54;;;;;;;55.93;51.10;;;;;;;10.68;96.62;102605.25;10386830;28;20599;-83
2021/12/15 01:03:56;;;;;;;56.50;51.50;;;;;;;11.07;96.40;102665.88;10388828;28;20239;-83
2021/12/15 01:09:05;;;;;;;53.67;48.97;;;;;;;11.07;96.11;102667.72;10390934;28;20235;-83
2021/12/15 01:24:47;;;;;;;56.20;51.20;;;;;;;10.83;95.90;102630.44;10394428;28;20665;-83
2021/12/15 01:29:50;;;;;;;53.03;48.73;;;;;;;11.07;96.46;102671.25;10391655;28;20703;-83
2021/12/15 01:34:52;;;;;;;55.35;50.42;;;;;;;10.98;95.90;102650.28;10394962;28;20612;-83
2021/12/15 01:39:55;;;;;;;52.73;48.10;;;;;;;10.73;96.18;102609.50;10393105;28;20216;-83
2021/12/15 01:50:18;;;;;;;50.05;45.85;;;;;;;11.07;95.87;102681.94;10393587;28;20665;-83
2021/12/15 01:55:21;;;;;;;50.63;46.35;;;;;;;11.09;95.49;102697.91;10393197;28;20213;-82
2021/12/15 02:00:27;;;;;;;50.50;46.10;;;;;;;10.97;95.89;102683.28;10393459;28;20798;-82
2021/12/15 02:05:32;;;;;;;49.70;45.27;;;;;;;11.08;96.03;102701.56;10396060;28;20266;-82
2021/12/15 02:10:37;;;;;;;48.57;44.47;;;;;;;11.07;95.57;102703.34;10395666;28;20249;-83
2021/12/15 02:15:47;;;;;;;51.03;46.50;;;;;;;11.09;95.53;102705.94;10394690;28;20270;-83
2021/12/15 02:20:55;;;;;;;48.63;44.43;;;;;;;11.06;95.80;102698.06;10392830;28;20275;-83
2021/12/15 02:25:57;;;;;;;49.17;44.80;;;;;;;11.02;95.71;102705.34;10393297;28;20264;-83
2021/12/15 02:31:07;;;;;;;50.57;46.17;;;;;;;11.04;96.02;102705.31;10390307;28;20655;-84
2021/12/15 02:41:33;;;;;;;49.67;45.37;;;;;;;10.89;95.76;102680.09;10374400;28;20215;-83
2021/12/15 02:46:38;;;;;;;46.38;42.20;;;;;;;10.99;95.84;102696.59;10391620;28;20236;-82
2021/12/15 02:51:43;;;;;;;48.13;44.13;;;;;;;10.57;96.20;102612.84;10395333;28;20220;-84
2021/12/15 02:56:46;;;;;;;48.00;43.80;;;;;;;11.00;96.18;102674.25;10395600;28;20216;-84
2021/12/15 03:02:00;;;;;;;48.50;44.40;;;;;;;11.13;96.28;102698.66;10391547;28;20226;-83
2021/12/15 03:07:11;;;;;;;47.53;43.23;;;;;;;10.98;95.60;102693.06;10391913;28;20216;-84
2021/12/15 03:17:32;;;;;;;47.53;43.47;;;;;;;11.00;95.78;102680.50;10391842;28;20204;-83
2021/12/15 03:22:36;;;;;;;49.45;45.22;;;;;;;10.81;96.09;102659.03;10393020;28;20236;-83
2021/12/15 03:38:17;;;;;;;47.67;43.37;;;;;;;10.99;96.01;102678.75;10393471;28;20208;-83
2021/12/15 03:43:20;;;;;;;49.30;44.93;;;;;;;10.94;95.95;102678.06;10390802;28;20267;-83
2021/12/15 03:48:25;;;;;;;48.65;44.30;;;;;;;11.10;96.35;102697.88;10388456;28;20650;-80
2021/12/15 03:53:29;;;;;;;46.10;41.95;;;;;;;11.10;95.61;102705.03;10386956;28;20208;-80
2021/12/15 03:58:32;;;;;;;53.33;48.63;;;;;;;11.07;96.30;102710.50;10384479;28;20255;-80
2021/12/15 04:03:37;;;;;;;49.33;44.87;;;;;;;10.44;95.77;102622.31;10381444;28;20220;-83
2021/12/15 04:08:41;;;;;;;49.50;45.17;;;;;;;10.98;96.31;102702.88;10389962;28;20235;-83
2021/12/15 04:13:45;;;;;;;47.27;42.97;;;;;;;10.96;96.38;102694.03;10390551;28;20224;-84
2021/12/15 04:18:47;;;;;;;48.30;43.65;;;;;;;11.19;96.28;102733.16;10387042;28;20216;-82
2021/12/15 04:23:53;;;;;;;48.97;44.60;;;;;;;11.01;95.74;102708.94;10390638;28;20212;-83
2021/12/15 04:28:55;;;;;;;49.37;44.57;;;;;;;10.91;96.15;102675.53;10389752;28;20239;-84
2021/12/15 04:34:00;;;;;;;48.25;43.97;;;;;;;10.94;96.33;102687.91;10390802;28;20228;-83
2021/12/15 04:39:05;;;;;;;48.95;44.28;;;;;;;11.24;95.68;102733.81;10389007;28;20255;-83
2021/12/15 04:44:10;;;;;;;49.63;45.15;;;;;;;11.25;96.07;102747.13;10393510;28;20995;-83
2021/12/15 04:49:17;;;;;;;49.73;45.13;;;;;;;11.25;95.51;102732.91;10394362;28;20726;-83
2021/12/15 04:54:20;;;;;;;54.67;49.92;;;;;;;11.03;96.31;102707.09;10388830;28;20208;-83
2021/12/15 04:59:22;;;;;;;48.70;43.55;;;;;;;11.15;96.00;102734.22;10393463;28;20215;-84
2021/12/15 05:04:24;;;;;;;48.22;44.08;;;;;;;11.20;95.85;102737.56;10393188;28;20220;-83
2021/12/15 05:09:27;;;;;;;53.63;48.77;;;;;;;10.97;95.74;102693.97;10388482;28;20236;-83
2021/12/15 05:14:29;;;;;;;46.45;42.05;;;;;;;11.02;95.85;102709.81;10391898;28;20885;-83
2021/12/15 05:19:31;;;;;;;47.90;42.80;;;;;;;11.13;96.09;102736.09;10390718;28;20274;-83
2021/12/15 05:24:35;;;;;;;48.90;43.78;;;;;;;11.20;96.58;102740.25;10387213;28;20293;-83
2021/12/15 05:29:38;;;;;;;49.92;44.67;;;;;;;11.25;96.58;102743.59;10393015;28;20231;-83
2021/12/15 05:34:41;;;;;;;49.00;43.67;;;;;;;11.27;96.32;102749.75;10386356;28;20228;-84
2021/12/15 05:39:46;;;;;;;49.40;44.28;;;;;;;11.17;96.57;102727.91;10389217;28;20219;-83
2021/12/15 05:44:49;;;;;;;50.92;45.45;;;;;;;11.30;97.24;102754.94;10390011;28;20209;-82
2021/12/15 05:49:51;;;;;;;53.53;47.97;;;;;;;11.24;95.93;102749.88;10386484;28;20236;-83
2021/12/15 05:54:54;;;;;;;53.22;47.80;;;;;;;11.23;96.68;102745.47;10389512;28;20208;-83
2021/12/15 05:59:56;;;;;;;54.77;48.87;;;;;;;10.94;96.01;102710.16;10397534;28;20219;-83
2021/12/15 06:04:57;;;;;;;55.00;48.20;;;;;;;11.24;96.78;102753.41;10393256;28;20325;-83
2021/12/15 06:10:01;;;;;;;53.80;48.43;;;;;;;11.18;96.71;102750.16;10396656;28;20224;-83
2021/12/15 06:15:03;;;;;;;55.05;49.08;;;;;;;11.19;96.54;102752.75;10397687;28;20270;-82
2021/12/15 06:20:07;;;;;;;54.83;49.08;;;;;;;11.21;96.52;102764.28;10394721;28;20653;-83
2021/12/15 06:25:10;;;;;;;54.10;48.80;;;;;;;10.95;97.26;102727.94;10396243;28;20209;-83
2021/12/15 06:30:12;;;;;;;51.92;46.75;;;;;;;11.26;97.22;102767.63;10393323;28;20228;-83
2021/12/15 06:35:14;;;;;;;53.63;48.30;;;;;;;11.16;96.81;102747.53;10397039;28;20218;-83
2021/12/15 06:40:17;;;;;;;54.05;48.70;;;;;;;11.21;96.82;102761.59;10393568;28;20208;-83
2021/12/15 06:45:24;;;;;;;54.05;48.72;;;;;;;11.26;96.94;102785.44;10396723;28;20219;-83
2021/12/15 07:01:06;;;;;;;51.80;46.17;;;;;;;11.22;96.88;102783.84;10389331;28;20223;-83
2021/12/15 07:06:08;;;;;;;50.47;45.43;;;;;;;11.25;96.71;102797.97;10388664;28;20208;-83
2021/12/15 07:11:11;;;;;;;52.73;47.50;;;;;;;11.20;96.99;102807.97;10393238;28;20224;-82
2021/12/15 07:16:13;;;;;;;52.13;47.17;;;;;;;11.19;97.16;102806.25;10389667;28;20664;-82
2021/12/15 07:21:19;;;;;;;205.95;194.40;;;;;;;10.91;97.51;102718.31;10388781;28;20459;-83
2021/12/15 07:26:23;;;;;;;58.88;53.47;;;;;;;10.91;97.36;102737.91;10397563;28;20209;-84
2021/12/15 07:31:24;;;;;;;51.67;46.45;;;;;;;11.31;96.80;102804.84;10394486;28;20227;-84
2021/12/15 07:36:26;;;;;;;56.97;51.20;;;;;;;11.18;97.13;102799.16;10396697;28;20204;-84
2021/12/15 07:41:35;;;;;;;50.57;45.50;;;;;;;10.99;97.46;102772.31;10395813;28;20290;-84
2021/12/15 07:46:37;;;;;;;52.13;47.33;;;;;;;10.74;97.58;102712.78;10387838;28;20263;-85
2021/12/15 07:51:43;;;;;;;51.13;46.25;;;;;;;11.32;97.70;102822.66;10388250;28;20224;-83
2021/12/15 07:56:46;;;;;;;50.72;45.80;;;;;;;11.32;97.81;102816.41;10396970;28;20211;-84
2021/12/15 08:01:48;;;;;;;50.40;45.45;;;;;;;11.13;97.73;102781.56;10395947;28;20243;-83
2021/12/15 08:06:49;;;;;;;50.95;45.65;;;;;;;11.36;97.17;102820.69;10397900;28;20219;-83
2021/12/15 08:11:52;;;;;;;52.78;47.42;;;;;;;11.20;96.84;102793.75;10394972;28;20228;-83
2021/12/15 08:16:54;;;;;;;52.17;46.95;;;;;;;11.21;97.16;102798.19;10391716;28;20223;-83
2021/12/15 08:21:56;;;;;;;48.80;44.22;;;;;;;11.18;97.74;102788.47;10396696;28;20215;-83
2021/12/15 08:26:59;;;;;;;47.42;43.03;;;;;;;11.35;97.44;102838.56;10395471;28;20676;-84
2021/12/15 08:32:01;;;;;;;47.08;42.75;;;;;;;11.38;97.81;102838.44;10396363;28;20220;-83
2021/12/15 08:37:03;;;;;;;49.70;45.08;;;;;;;10.45;97.47;102670.34;10396265;28;20212;-83
2021/12/15 08:42:07;;;;;;;362.15;344.35;;;;;;;11.80;96.31;102840.19;10383664;28;20460;-83
2021/12/15 08:47:10;;;;;;;52.08;47.80;;;;;;;11.60;96.34;102837.50;10394221;28;20778;-83
2021/12/15 08:52:12;;;;;;;47.75;43.53;;;;;;;11.56;96.27;102834.09;10397586;28;20232;-84
2021/12/15 08:57:15;;;;;;;45.33;41.25;;;;;;;10.70;96.19;102698.72;10400957;28;20298;-84
2021/12/15 09:02:17;;;;;;;43.80;40.20;;;;;;;9.91;96.37;102580.88;10400482;28;20228;-83
2021/12/15 09:07:18;;;;;;;43.72;39.92;;;;;;;10.93;95.42;102761.91;10396864;28;20216;-83
2021/12/15 09:12:21;;;;;;;42.40;38.90;;;;;;;11.50;96.13;102872.69;10400197;28;20227;-84
2021/12/15 09:17:24;;;;;;;42.35;38.70;;;;;;;11.54;95.79;102869.91;10393871;28;20209;-84
2021/12/15 09:22:26;;;;;;;42.88;39.17;;;;;;;11.16;94.95;102814.41;10404708;28;20200;-84
2021/12/15 09:27:29;;;;;;;42.17;38.38;;;;;;;10.47;95.82;102702.31;10399442;28;20258;-83
2021/12/15 09:32:30;;;;;;;45.05;41.25;;;;;;;10.50;95.66;102700.41;10411410;28;20731;-83
2021/12/15 09:37:35;;;;;;;42.47;39.03;;;;;;;10.52;96.14;102705.69;10414860;28;20212;-84
2021/12/15 09:42:40;;;;;;;45.15;41.00;;;;;;;11.58;95.38;102883.06;10411576;28;20231;-84
2021/12/15 09:47:58;;;;;;;42.47;38.63;;;;;;;11.34;95.72;102839.53;10404452;28;20232;-83
2021/12/15 10:04:18;;;;;;;41.47;37.90;;;;;;;11.58;95.79;102904.47;10400601;28;20229;-85
2021/12/15 10:20:03;;;;;;;37.55;34.58;;;;;;;11.70;94.91;102916.50;10397530;28;20216;-82
2021/12/15 10:25:09;;;;;;;35.33;32.42;;;;;;;11.69;95.75;102912.94;10402226;28;20225;-84
2021/12/15 10:30:25;;;;;;;33.20;30.52;;;;;;;11.61;93.93;102893.66;10392354;28;20232;-83
2021/12/15 10:35:30;;;;;;;33.05;30.17;;;;;;;11.72;93.91;102924.47;10397656;28;20207;-83
2021/12/15 10:40:31;;;;;;;30.17;27.90;;;;;;;11.39;94.12;102868.75;10398982;28;20212;-83
2021/12/15 10:45:41;;;;;;;31.40;29.08;;;;;;;11.76;93.84;102921.56;10400633;28;20207;-83
2021/12/15 10:50:43;;;;;;;31.42;28.98;;;;;;;11.78;93.17;102927.72;10395068;28;20228;-83
2021/12/15 10:55:45;;;;;;;30.38;28.23;;;;;;;11.45;93.19;102866.69;10402468;28;20600;-83
2021/12/15 11:00:48;;;;;;;30.13;27.60;;;;;;;11.72;93.08;102906.59;10398538;28;20254;-84
2021/12/15 11:05:50;;;;;;;30.33;27.65;;;;;;;11.57;92.26;102880.50;10398265;28;20612;-84
2021/12/15 11:10:54;;;;;;;29.55;27.17;;;;;;;11.64;92.93;102904.25;10405450;28;20228;-85
2021/12/15 11:15:57;;;;;;;29.80;27.25;;;;;;;11.81;92.59;102918.69;10403364;28;20217;-84
2021/12/15 11:21:02;;;;;;;29.92;27.48;;;;;;;11.64;91.94;102889.97;10396800;28;20215;-84
2021/12/15 11:26:06;;;;;;;30.35;28.10;;;;;;;11.75;92.25;102918.97;10396087;28;20221;-84
2021/12/15 11:31:12;;;;;;;30.08;27.67;;;;;;;11.85;92.43;102928.34;10396103;28;20321;-84
2021/12/15 11:36:16;;;;;;;29.83;27.30;;;;;;;11.73;91.39;102902.09;10398705;28;20210;-84
2021/12/15 11:41:21;;;;;;;28.50;26.35;;;;;;;11.87;91.67;102924.66;10400558;28;20213;-83
2021/12/15 11:46:29;;;;;;;28.67;26.63;;;;;;;11.88;92.06;102915.72;10396013;28;20692;-84
2021/12/15 11:51:38;;;;;;;27.23;25.30;;;;;;;11.93;91.23;102928.06;10394571;28;20236;-84
2021/12/15 11:56:40;;;;;;;155.23;148.13;;;;;;;12.06;88.41;102865.81;10378146;28;21334;-83
2021/12/15 12:01:51;;;;;;;31.08;28.70;;;;;;;11.69;89.55;102823.72;10380722;28;20745;-84
2021/12/15 12:06:57;;;;;;;33.58;31.02;;;;;;;11.31;90.33;102770.09;10387698;28;20280;-84
2021/12/15 12:12:00;;;;;;;27.35;25.30;;;;;;;12.15;89.50;102915.44;10391885;28;20239;-83
2021/12/15 12:17:05;;;;;;;26.08;24.25;;;;;;;12.14;89.62;102905.66;10390041;28;21196;-83
2021/12/15 12:22:09;;;;;;;29.05;26.85;;;;;;;12.21;89.59;102915.16;10389525;28;20236;-83
2021/12/15 12:27:12;;;;;;;28.92;26.73;;;;;;;11.68;89.69;102809.47;10394397;28;20212;-84
2021/12/15 12:32:15;;;;;;;28.98;26.65;;;;;;;11.01;90.25;102702.75;10388776;28;20239;-84
2021/12/15 12:37:17;;;;;;;30.02;27.80;;;;;;;11.98;90.78;102854.59;10386353;28;20212;-83
2021/12/15 12:42:37;;;;;;;28.98;26.67;;;;;;;12.19;90.61;102898.28;10390551;28;20220;-84
2021/12/15 12:47:47;;;;;;;31.33;28.83;;;;;;;11.92;89.39;102860.22;10389336;28;20686;-83
2021/12/15 13:03:38;;;;;;;30.95;28.52;;;;;;;12.20;90.39;102883.09;10363821;28;20235;-84
2021/12/15 13:08:43;;;;;;;32.20;29.45;;;;;;;11.95;90.66;102860.09;10400930;28;20664;-85
2021/12/15 13:13:55;;;;;;;29.92;27.35;;;;;;;11.99;90.87;102861.69;10405794;28;20660;-84
2021/12/15 13:19:00;;;;;;;32.47;30.05;;;;;;;11.16;91.26;102717.25;10406620;28;20208;-84
2021/12/15 13:24:08;;;;;;;31.67;28.88;;;;;;;12.16;92.11;102876.13;10401340;28;20231;-83
2021/12/15 13:29:23;;;;;;;33.00;29.77;;;;;;;11.44;90.28;102759.72;10402415;28;20226;-84
2021/12/15 13:34:43;;;;;;;32.75;30.02;;;;;;;11.86;91.11;102834.53;10402949;28;20231;-84
2021/12/15 13:39:48;;;;;;;30.77;28.25;;;;;;;12.18;92.21;102883.16;10402095;28;20204;-84
2021/12/15 13:44:50;;;;;;;29.30;26.80;;;;;;;12.23;91.93;102877.59;10403435;28;20208;-84
2021/12/15 13:49:56;;;;;;;29.75;27.23;;;;;;;12.25;91.88;102884.59;10397987;28;20302;-84
2021/12/15 13:55:19;;;;;;;30.50;27.73;;;;;;;12.22;91.90;102871.38;10395878;28;20217;-83
2021/12/15 14:00:31;;;;;;;31.88;29.23;;;;;;;12.20;92.05;102875.91;10400560;28;20215;-84
2021/12/15 14:05:37;;;;;;;29.73;27.17;;;;;;;12.06;92.37;102860.47;10399715;28;20635;-84
2021/12/15 14:10:59;;;;;;;28.63;26.20;;;;;;;12.25;92.01;102889.09;10405226;28;20228;-84
2021/12/15 14:16:01;;;;;;;28.80;26.48;;;;;;;12.22;90.46;102886.56;10398097;28;20201;-83
2021/12/15 14:21:08;;;;;;;28.65;26.45;;;;;;;12.13;92.05;102877.16;10399307;28;20216;-85
2021/12/15 14:26:13;;;;;;;27.60;25.60;;;;;;;12.22;90.90;102894.59;10400608;28;20200;-84
2021/12/15 14:31:19;;;;;;;29.10;26.92;;;;;;;11.91;90.45;102846.91;10415475;28;20228;-85
2021/12/15 14:36:26;;;;;;;27.88;25.98;;;;;;;11.59;90.85;102796.50;10445895;28;20204;-84
2021/12/15 14:41:31;;;;;;;30.02;27.27;;;;;;;11.98;90.76;102869.78;10440673;28;20236;-83
2021/12/15 14:46:36;;;;;;;28.83;26.40;;;;;;;12.18;89.88;102920.66;10441090;28;20231;-85
2021/12/15 14:51:43;;;;;;;28.25;26.10;;;;;;;12.15;90.36;102922.59;10445932;28;20724;-85
2021/12/15 14:56:50;;;;;;;30.00;27.50;;;;;;;11.88;91.53;102880.91;10440940;28;20684;-85
2021/12/15 15:01:56;;;;;;;30.02;27.55;;;;;;;11.96;90.99;102899.34;10434471;28;20228;-84
2021/12/15 15:07:05;;;;;;;28.58;26.45;;;;;;;12.14;90.73;102934.28;10411538;28;20618;-86
2021/12/15 15:12:14;;;;;;;28.88;26.52;;;;;;;11.93;89.86;102925.38;10406905;28;20323;-85
2021/12/15 15:17:25;;;;;;;27.33;25.55;;;;;;;11.32;89.98;102808.41;10402839;28;20582;-84
2021/12/15 15:22:33;;;;;;;29.98;27.35;;;;;;;11.61;89.72;102874.91;10408205;28;20342;-84
2021/12/15 15:27:37;;;;;;;28.08;26.05;;;;;;;12.10;90.76;102970.19;10402300;28;20211;-86
2021/12/15 15:32:44;;;;;;;29.25;26.83;;;;;;;11.30;90.50;102817.38;10415046;28;20236;-84
2021/12/15 15:37:47;;;;;;;29.67;27.15;;;;;;;12.05;90.19;102955.19;10410403;28;20219;-85
2021/12/15 15:42:58;;;;;;;29.58;27.15;;;;;;;11.94;91.24;102935.13;10417243;28;20204;-85
2021/12/15 15:48:05;;;;;;;30.25;28.08;;;;;;;11.76;90.60;102926.94;10430435;28;20232;-85
2021/12/15 15:53:11;;;;;;;28.33;26.10;;;;;;;11.26;89.54;102837.19;10426971;28;20251;-85
2021/12/15 15:58:16;;;;;;;27.73;25.52;;;;;;;12.05;89.80;102989.09;10423441;28;20217;-83
2021/12/15 16:03:21;;;;;;;30.98;28.65;;;;;;;11.74;90.81;102947.56;10414671;28;20220;-84
2021/12/15 16:08:26;;;;;;;27.55;25.48;;;;;;;12.03;90.57;102985.63;10410344;28;20239;-84
2021/12/15 16:13:32;;;;;;;28.13;26.00;;;;;;;11.19;89.84;102862.44;10403627;28;20296;-85
2021/12/15 16:18:40;;;;;;;28.50;26.40;;;;;;;12.01;91.27;102984.81;10412470;28;20304;-84
2021/12/15 16:23:50;;;;;;;28.80;26.35;;;;;;;11.99;89.99;103000.09;10414999;28;20209;-85
2021/12/15 16:28:52;;;;;;;28.42;25.77;;;;;;;10.12;90.86;102702.78;10412246;28;20272;-84
2021/12/15 16:33:54;;;;;;;31.60;29.40;;;;;;;11.97;90.69;102999.28;10410457;28;20236;-85
2021/12/15 16:38:58;;;;;;;29.90;27.48;;;;;;;11.57;89.95;102932.19;10412376;28;20307;-85
2021/12/15 16:44:03;;;;;;;29.60;27.15;;;;;;;12.00;90.78;103009.88;10411019;28;20219;-85
2021/12/15 16:49:14;;;;;;;28.55;26.33;;;;;;;12.01;89.36;103006.25;10417955;28;20744;-85
2021/12/15 16:54:22;;;;;;;28.15;25.88;;;;;;;11.68;90.25;102971.91;10452783;28;20220;-85
2021/12/15 16:59:32;;;;;;;28.30;26.13;;;;;;;11.75;90.73;102978.72;10414612;28;20648;-84
2021/12/15 17:04:41;;;;;;;27.38;25.10;;;;;;;11.99;89.19;103032.22;10402075;28;20712;-85
2021/12/15 17:09:47;;;;;;;26.70;24.60;;;;;;;10.93;89.11;102852.81;10404820;28;20196;-84
2021/12/15 17:14:53;;;;;;;28.73;26.40;;;;;;;11.99;89.75;103030.41;10396137;28;20623;-84
2021/12/15 17:19:55;;;;;;;27.27;25.05;;;;;;;12.02;90.24;103038.34;10393668;28;20718;-84
2021/12/15 17:25:10;;;;;;;26.95;24.65;;;;;;;12.01;89.92;103039.25;10396451;28;20213;-85
2021/12/15 17:30:25;;;;;;;27.50;25.40;;;;;;;11.55;88.94;102949.28;10396466;28;20224;-84
2021/12/15 17:35:27;;;;;;;28.48;26.17;;;;;;;11.97;88.66;103047.50;10393797;28;20584;-85
2021/12/15 17:40:30;;;;;;;28.02;25.92;;;;;;;11.95;89.37;103042.19;10399473;28;20204;-84
2021/12/15 17:45:32;;;;;;;28.33;26.17;;;;;;;11.95;89.46;103046.69;10396919;28;20271;-85
2021/12/15 17:50:36;;;;;;;29.65;27.35;;;;;;;11.97;89.81;103060.88;10399130;28;20240;-84
2021/12/15 17:55:44;;;;;;;30.15;27.63;;;;;;;11.77;89.31;103040.25;10401242;28;20216;-85
2021/12/15 18:00:50;;;;;;;30.25;27.73;;;;;;;11.73;88.78;103035.97;10402304;28;20228;-84
2021/12/15 18:05:54;;;;;;;30.48;28.10;;;;;;;11.10;88.27;102935.03;10402111;28;20270;-85
2021/12/15 18:11:06;;;;;;;31.98;29.58;;;;;;;11.37;89.33;102991.88;10403585;28;20233;-84
2021/12/15 18:16:08;;;;;;;33.60;30.63;;;;;;;11.62;88.86;103039.97;10405336;28;20285;-85
2021/12/15 18:21:12;;;;;;;32.45;29.73;;;;;;;11.81;90.01;103076.66;10400717;28;20219;-84
2021/12/15 18:26:18;;;;;;;32.17;29.60;;;;;;;11.41;89.94;103022.06;10404387;28;20208;-84
2021/12/15 18:31:22;;;;;;;33.67;30.48;;;;;;;11.80;90.13;103075.81;10400412;28;20220;-84
2021/12/15 18:36:23;;;;;;;32.88;30.17;;;;;;;10.67;89.91;102885.91;10401962;28;20212;-84
2021/12/15 18:41:30;;;;;;;34.35;31.20;;;;;;;11.75;90.22;103075.09;10416194;28;20215;-84
2021/12/15 18:46:35;;;;;;;34.70;31.55;;;;;;;11.59;90.29;103072.19;10405834;28;20236;-84
2021/12/15 18:51:37;;;;;;;36.40;32.90;;;;;;;11.71;89.87;103078.84;10405885;28;20223;-84
2021/12/15 18:56:42;;;;;;;34.97;32.00;;;;;;;11.52;90.42;103053.75;10407127;28;20197;-84
2021/12/15 19:01:48;;;;;;;35.13;31.65;;;;;;;11.55;90.70;103067.03;10402259;28;20223;-85
2021/12/15 19:06:50;;;;;;;34.35;31.35;;;;;;;11.58;90.95;103075.78;10404824;28;20212;-84
2021/12/15 19:11:55;;;;;;;34.47;30.70;;;;;;;11.71;90.59;103094.91;10406076;28;20251;-85
2021/12/15 19:16:57;;;;;;;32.88;29.98;;;;;;;11.71;90.48;103110.97;10407316;28;20703;-84
2021/12/15 19:22:00;;;;;;;33.38;30.55;;;;;;;11.54;91.38;103092.03;10405526;28;20212;-84
2021/12/15 19:27:04;;;;;;;34.53;30.98;;;;;;;11.26;91.06;103040.50;10405825;28;20219;-85
2021/12/15 19:32:07;;;;;;;35.03;32.25;;;;;;;11.65;90.80;103111.22;10399690;28;20232;-85
2021/12/15 19:37:09;;;;;;;33.97;30.92;;;;;;;11.64;91.70;103102.34;10405011;28;20228;-84
2021/12/15 19:42:12;;;;;;;33.80;30.88;;;;;;;11.64;91.69;103121.06;10398020;28;20205;-84
2021/12/15 19:47:14;;;;;;;34.43;31.37;;;;;;;11.65;91.39;103121.94;10400771;28;20232;-84
2021/12/15 19:52:17;;;;;;;34.00;31.10;;;;;;;11.59;91.83;103106.13;10402430;28;20220;-84
2021/12/15 19:57:21;;;;;;;32.50;29.90;;;;;;;11.54;91.78;103108.09;10388587;28;20666;-84
2021/12/15 20:02:22;;;;;;;34.83;31.20;;;;;;;11.63;91.64;103124.66;10392498;28;20735;-84
2021/12/15 20:07:24;;;;;;;34.88;31.88;;;;;;;11.45;91.25;103106.66;10396717;28;20209;-84
2021/12/15 20:12:29;;;;;;;33.95;30.85;;;;;;;11.56;91.55;103133.88;10400636;28;20224;-84
2021/12/15 20:17:31;;;;;;;32.83;30.17;;;;;;;11.60;91.65;103134.63;10400063;28;20200;-84
2021/12/15 20:22:32;;;;;;;34.78;31.50;;;;;;;10.86;92.15;102998.34;10400166;28;20235;-84
2021/12/15 20:27:36;;;;;;;32.97;30.23;;;;;;;11.57;90.99;103132.94;10401383;28;20216;-85
2021/12/15 20:32:39;;;;;;;34.17;31.02;;;;;;;11.35;91.35;103107.94;10398114;28;20239;-85
2021/12/15 20:37:42;;;;;;;32.85;29.92;;;;;;;11.46;91.31;103128.00;10399432;28;20208;-85
2021/12/15 20:42:45;;;;;;;33.67;30.58;;;;;;;11.06;91.32;103084.03;10399737;28;20219;-84
2021/12/15 20:47:47;;;;;;;32.95;30.20;;;;;;;10.71;91.17;103019.38;10403898;28;20228;-85
2021/12/15 20:52:49;;;;;;;34.80;31.63;;;;;;;11.45;90.85;103146.78;10396534;28;20424;-84
2021/12/15 20:57:52;;;;;;;32.85;29.85;;;;;;;11.39;91.51;103147.03;10395613;28;20204;-83
2021/12/15 21:02:54;;;;;;;34.65;31.58;;;;;;;11.37;91.56;103157.78;10394689;28;20626;-83
2021/12/15 21:07:57;;;;;;;31.70;29.13;;;;;;;11.34;91.01;103149.00;10395329;28;20270;-85
2021/12/15 21:13:02;;;;;;;32.20;29.63;;;;;;;11.31;91.77;103152.66;10395097;28;20587;-84
2021/12/15 21:18:04;;;;;;;31.88;29.15;;;;;;;11.26;91.42;103155.53;10397712;28;20306;-84
2021/12/15 21:23:06;;;;;;;31.97;29.47;;;;;;;11.26;91.66;103157.31;10398875;28;20220;-84
2021/12/15 21:28:09;;;;;;;32.47;29.47;;;;;;;11.02;91.61;103125.19;10410857;28;20256;-85
2021/12/15 21:33:11;;;;;;;33.78;30.90;;;;;;;11.25;91.26;103155.56;10412809;28;20236;-85
2021/12/15 21:38:13;;;;;;;32.27;29.40;;;;;;;11.03;90.89;103137.63;10410000;28;20216;-83
2021/12/15 21:43:17;;;;;;;31.37;28.43;;;;;;;11.07;91.54;103152.63;10401648;28;20235;-85
2021/12/15 21:48:20;;;;;;;31.73;28.83;;;;;;;10.29;91.00;103025.31;10402678;28;20293;-85
2021/12/15 21:53:22;;;;;;;32.60;28.97;;;;;;;10.92;91.53;103150.50;10402883;28;20229;-84
2021/12/15 21:58:29;;;;;;;31.03;27.87;;;;;;;10.64;91.52;103106.06;10398020;28;20209;-84
2021/12/15 22:03:35;;;;;;;31.33;28.20;;;;;;;10.99;92.41;103168.09;10407578;28;20330;-84
2021/12/15 22:08:41;;;;;;;30.97;27.63;;;;;;;10.79;92.50;103146.53;10404082;28;20240;-84
2021/12/15 22:13:47;;;;;;;30.73;27.47;;;;;;;10.94;92.10;103179.88;10390781;28;20720;-84
2021/12/15 22:18:54;;;;;;;29.80;26.87;;;;;;;10.92;91.85;103177.25;10400263;28;20287;-83
2021/12/15 22:23:58;;;;;;;29.47;27.07;;;;;;;10.90;92.43;103196.00;10402277;28;20212;-85
2021/12/15 22:29:03;;;;;;;29.63;26.30;;;;;;;9.83;92.00;103005.53;10398337;28;20219;-84
2021/12/15 22:34:05;;;;;;;29.27;25.93;;;;;;;10.81;92.29;103185.66;10393196;28;20639;-85
2021/12/15 22:39:14;;;;;;;30.40;27.77;;;;;;;10.79;92.32;103176.81;10397986;28;20267;-84
2021/12/15 22:44:17;;;;;;;28.93;26.03;;;;;;;10.55;92.38;103151.81;10391165;28;20704;-85
2021/12/15 22:49:19;;;;;;;28.93;26.23;;;;;;;10.36;92.06;103122.19;10390393;28;20243;-85
2021/12/15 22:54:21;;;;;;;29.33;26.97;;;;;;;10.64;92.56;103171.97;10395748;28;20228;-84
2021/12/15 22:59:26;;;;;;;29.63;27.00;;;;;;;10.69;92.13;103184.25;10390615;28;20216;-84
2021/12/15 23:04:29;;;;;;;28.97;26.10;;;;;;;10.25;92.30;103146.53;10398644;28;20231;-84
2021/12/15 23:09:32;;;;;;;29.67;26.10;;;;;;;10.47;92.47;103173.44;10395832;28;20235;-84
2021/12/15 23:14:42;;;;;;;30.67;27.43;;;;;;;10.60;92.44;103210.44;10391640;28;20589;-84
2021/12/15 23:19:44;;;;;;;29.37;26.53;;;;;;;10.34;92.58;103156.09;10398795;28;20278;-84
2021/12/15 23:24:48;;;;;;;29.60;26.33;;;;;;;9.24;92.59;102979.00;10392826;28;20211;-85
2021/12/15 23:29:51;;;;;;;28.50;25.93;;;;;;;10.20;92.64;103159.16;10392059;28;20734;-84
2021/12/15 23:35:05;;;;;;;29.27;26.33;;;;;;;10.45;92.91;103215.38;10395937;28;20228;-84
